createdAt,value
2017-09-16T00:00:21.230Z,95101.56
2017-09-16T00:02:47.539Z,95109.74
2017-09-16T00:05:14.530Z,95111.98
2017-09-16T00:07:40.778Z,95109.37
2017-09-16T00:10:07.089Z,95101.18
2017-09-16T00:12:33.368Z,95093.56
2017-09-16T00:14:59.669Z,95097.66
2017-09-16T00:17:25.893Z,95100.81
2017-09-16T00:19:52.085Z,95101.75
2017-09-16T00:22:18.406Z,95099.70
2017-09-16T00:24:44.733Z,95102.48
2017-09-16T00:27:11.061Z,95095.98
2017-09-16T00:29:37.258Z,95098.22
2017-09-16T00:32:03.517Z,95099.55
2017-09-16T00:34:29.757Z,95100.27
2017-09-16T00:36:57.126Z,95099.88
2017-09-16T00:39:23.325Z,95099.70
2017-09-16T00:41:49.626Z,95098.59
2017-09-16T00:44:15.923Z,95091.52
2017-09-16T00:46:42.247Z,95096.35
2017-09-16T00:49:08.468Z,95092.45
2017-09-16T00:51:34.753Z,95086.67
2017-09-16T00:54:01.113Z,95080.34
2017-09-16T00:56:28.130Z,95079.98
2017-09-16T00:58:54.371Z,95075.52
2017-09-16T01:01:20.663Z,95074.39
2017-09-16T01:03:47.654Z,95074.77
2017-09-16T01:06:13.843Z,95082.95
2017-09-16T01:08:40.810Z,95084.63
2017-09-16T01:11:07.122Z,95075.14
2017-09-16T01:13:34.145Z,95061.94
2017-09-16T01:16:00.381Z,95059.14
2017-09-16T01:18:26.805Z,95051.52
2017-09-16T01:20:53.009Z,95044.08
2017-09-16T01:23:19.269Z,95040.55
2017-09-16T01:25:45.606Z,95039.80
2017-09-16T01:28:12.041Z,95046.69
2017-09-16T01:30:38.290Z,95039.44
2017-09-16T01:33:04.529Z,95024.19
2017-09-16T01:35:30.933Z,95009.88
2017-09-16T01:37:57.190Z,95014.14
2017-09-16T01:40:23.425Z,95026.02
2017-09-16T01:42:49.718Z,95026.60
2017-09-16T01:45:16.031Z,95022.33
2017-09-16T01:47:44.029Z,95024.90
2017-09-16T01:50:10.289Z,95025.48
2017-09-16T01:52:36.495Z,95022.89
2017-09-16T01:55:02.767Z,95024.19
2017-09-16T01:57:29.235Z,95027.34
2017-09-16T01:59:55.513Z,95047.06
2017-09-16T02:02:21.797Z,95063.05
2017-09-16T02:04:48.105Z,95055.80
2017-09-16T02:07:14.333Z,95046.14
2017-09-16T02:09:40.777Z,95040.75
2017-09-16T02:12:06.986Z,95035.35
2017-09-16T02:14:34.045Z,95035.56
2017-09-16T02:17:00.240Z,95035.20
2017-09-16T02:19:26.429Z,95040.78
2017-09-16T02:21:52.705Z,95043.94
2017-09-16T02:24:19.005Z,95037.45
2017-09-16T02:26:45.257Z,95028.69
2017-09-16T02:29:11.486Z,95030.55
2017-09-16T02:31:37.717Z,95042.64
2017-09-16T02:34:08.377Z,95045.80
2017-09-16T02:36:34.756Z,95048.03
2017-09-16T02:39:01.796Z,95052.87
2017-09-16T02:41:28.060Z,95059.20
2017-09-16T02:43:54.306Z,95055.66
2017-09-16T02:46:24.015Z,95052.66
2017-09-16T02:48:51.236Z,95053.05
2017-09-16T02:51:18.397Z,95043.94
2017-09-16T02:53:45.407Z,95051.16
2017-09-16T02:56:12.647Z,95053.20
2017-09-16T02:58:38.851Z,95048.55
2017-09-16T03:01:05.104Z,95053.02
2017-09-16T03:03:31.334Z,95037.95
2017-09-16T03:05:57.613Z,95040.92
2017-09-16T03:08:23.914Z,95034.97
2017-09-16T03:10:50.429Z,95025.08
2017-09-16T03:13:17.396Z,95021.73
2017-09-16T03:15:43.637Z,95013.73
2017-09-16T03:18:09.869Z,95018.56
2017-09-16T03:20:36.145Z,95018.53
2017-09-16T03:23:02.602Z,95020.38
2017-09-16T03:25:29.609Z,95026.89
2017-09-16T03:27:55.821Z,95022.05
2017-09-16T03:30:22.101Z,95011.09
2017-09-16T03:32:48.313Z,95009.97
2017-09-16T03:35:14.537Z,95007.18
2017-09-16T03:37:40.762Z,95006.25
2017-09-16T03:40:06.985Z,95001.80
2017-09-16T03:42:33.177Z,95000.86
2017-09-16T03:44:59.406Z,95001.79
2017-09-16T03:47:25.709Z,94999.94
2017-09-16T03:49:51.941Z,95001.41
2017-09-16T03:52:18.222Z,94999.92
2017-09-16T03:54:44.526Z,94993.80
2017-09-16T03:57:10.757Z,94998.62
2017-09-16T03:59:36.970Z,94999.91
2017-09-16T04:02:15.421Z,94995.83
2017-09-16T04:04:41.781Z,94998.25
2017-09-16T04:07:08.694Z,95001.59
2017-09-16T04:09:35.130Z,95000.86
2017-09-16T04:12:01.377Z,94996.95
2017-09-16T04:14:27.576Z,94994.54
2017-09-16T04:16:53.837Z,94983.39
2017-09-16T04:19:20.037Z,94988.04
2017-09-16T04:21:46.266Z,94986.91
2017-09-16T04:24:13.282Z,94997.50
2017-09-16T04:26:40.396Z,95001.92
2017-09-16T04:29:06.618Z,94995.23
2017-09-16T04:31:32.849Z,95001.91
2017-09-16T04:33:59.100Z,95009.53
2017-09-16T04:36:25.479Z,95003.97
2017-09-16T04:38:51.734Z,95001.22
2017-09-16T04:41:18.742Z,95008.61
2017-09-16T04:43:44.977Z,95010.09
2017-09-16T04:46:11.237Z,95002.66
2017-09-16T04:48:37.526Z,95006.19
2017-09-16T04:51:03.704Z,94996.71
2017-09-16T04:53:30.075Z,94996.53
2017-09-16T04:55:59.388Z,94998.80
2017-09-16T04:58:25.596Z,94995.80
2017-09-16T05:00:51.886Z,94998.02
2017-09-16T05:03:18.093Z,95004.33
2017-09-16T05:05:44.300Z,95010.31
2017-09-16T05:08:11.322Z,95001.59
2017-09-16T05:10:37.601Z,95004.94
2017-09-16T05:13:04.720Z,95014.42
2017-09-16T05:15:31.022Z,95027.08
2017-09-16T05:17:57.269Z,95025.59
2017-09-16T05:20:23.486Z,95033.77
2017-09-16T05:22:49.736Z,95035.98
2017-09-16T05:25:15.962Z,95031.87
2017-09-16T05:27:43.232Z,95033.38
2017-09-16T05:30:09.474Z,95032.45
2017-09-16T05:32:35.837Z,95041.74
2017-09-16T05:35:02.131Z,95043.97
2017-09-16T05:37:28.345Z,95034.31
2017-09-16T05:39:54.609Z,95034.68
2017-09-16T05:42:20.836Z,95025.94
2017-09-16T05:44:47.068Z,95023.14
2017-09-16T05:47:13.285Z,95009.58
2017-09-16T05:49:39.566Z,94993.60
2017-09-16T05:52:05.889Z,95000.86
2017-09-16T05:54:32.237Z,94999.94
2017-09-16T05:56:58.580Z,94994.77
2017-09-16T05:59:25.633Z,95004.43
2017-09-16T06:01:52.013Z,95014.09
2017-09-16T06:04:18.358Z,95024.66
2017-09-16T06:06:44.615Z,95025.22
2017-09-16T06:09:10.918Z,95020.94
2017-09-16T06:11:37.169Z,95019.81
2017-09-16T06:14:03.399Z,95015.35
2017-09-16T06:16:29.649Z,95022.41
2017-09-16T06:18:55.902Z,95029.46
2017-09-16T06:21:23.068Z,95040.23
2017-09-16T06:23:49.350Z,95040.02
2017-09-16T06:26:16.317Z,95045.78
2017-09-16T06:28:42.743Z,95046.93
2017-09-16T06:31:09.010Z,95047.69
2017-09-16T06:33:35.258Z,95053.64
2017-09-16T06:36:01.581Z,95054.56
2017-09-16T06:38:27.838Z,95047.67
2017-09-16T06:40:54.270Z,95051.59
2017-09-16T06:43:22.549Z,95058.41
2017-09-16T06:45:48.857Z,95071.79
2017-09-16T06:48:15.141Z,95079.41
2017-09-16T06:50:42.153Z,95075.36
2017-09-16T06:53:08.404Z,95088.70
2017-09-16T06:55:34.617Z,95092.23
2017-09-16T06:58:00.855Z,95095.17
2017-09-16T07:00:27.117Z,95104.64
2017-09-16T07:02:53.438Z,95097.19
2017-09-16T07:05:19.670Z,95096.47
2017-09-16T07:07:45.882Z,95094.99
2017-09-16T07:10:12.078Z,95101.30
2017-09-16T07:12:39.165Z,95113.20
2017-09-16T07:15:05.438Z,95121.20
2017-09-16T07:17:31.626Z,95120.09
2017-09-16T07:19:57.902Z,95115.81
2017-09-16T07:22:24.121Z,95119.36
2017-09-16T07:24:50.349Z,95111.19
2017-09-16T07:27:16.591Z,95121.83
2017-09-16T07:29:42.789Z,95128.70
2017-09-16T07:32:09.802Z,95131.63
2017-09-16T07:34:36.133Z,95136.50
2017-09-16T07:37:02.440Z,95144.64
2017-09-16T07:39:28.657Z,95147.84
2017-09-16T07:41:54.893Z,95143.77
2017-09-16T07:44:21.364Z,95149.75
2017-09-16T07:46:47.570Z,95154.02
2017-09-16T07:49:13.833Z,95150.00
2017-09-16T07:51:40.054Z,95146.67
2017-09-16T07:54:06.322Z,95138.00
2017-09-16T07:56:33.343Z,95143.38
2017-09-16T07:58:59.592Z,95142.67
2017-09-16T08:01:25.811Z,95148.28
2017-09-16T08:03:52.082Z,95153.25
2017-09-16T08:06:18.265Z,95136.94
2017-09-16T08:08:44.507Z,95125.83
2017-09-16T08:11:10.779Z,95126.81
2017-09-16T08:13:37.095Z,95128.88
2017-09-16T08:16:03.340Z,95131.86
2017-09-16T08:18:29.542Z,95140.05
2017-09-16T08:20:55.788Z,95143.77
2017-09-16T08:23:22.008Z,95135.95
2017-09-16T08:25:48.284Z,95125.20
2017-09-16T08:28:14.654Z,95127.91
2017-09-16T08:30:41.627Z,95129.71
2017-09-16T08:33:07.909Z,95143.72
2017-09-16T08:35:34.238Z,95148.33
2017-09-16T08:38:01.451Z,95154.09
2017-09-16T08:40:27.722Z,95153.96
2017-09-16T08:42:53.957Z,95150.62
2017-09-16T08:45:20.203Z,95151.36
2017-09-16T08:47:46.522Z,95153.25
2017-09-16T08:50:12.806Z,95154.75
2017-09-16T08:52:39.802Z,95158.69
2017-09-16T08:55:06.039Z,95152.17
2017-09-16T08:57:32.261Z,95148.84
2017-09-16T08:59:58.455Z,95148.45
2017-09-16T09:02:24.956Z,95148.26
2017-09-16T09:04:51.194Z,95151.60
2017-09-16T09:07:17.451Z,95154.59
2017-09-16T09:09:43.748Z,95146.75
2017-09-16T09:12:09.982Z,95145.12
2017-09-16T09:14:36.349Z,95149.77
2017-09-16T09:17:02.570Z,95151.64
2017-09-16T09:19:28.855Z,95157.22
2017-09-16T09:21:56.150Z,95157.95
2017-09-16T09:24:22.453Z,95158.12
2017-09-16T09:26:48.714Z,95163.50
2017-09-16T09:29:17.463Z,95171.67
2017-09-16T09:31:45.609Z,95170.16
2017-09-16T09:34:11.907Z,95169.19
2017-09-16T09:36:38.293Z,95175.55
2017-09-16T09:39:04.833Z,95166.48
2017-09-16T09:41:31.121Z,95165.01
2017-09-16T09:43:57.378Z,95170.79
2017-09-16T09:46:23.618Z,95171.54
2017-09-16T09:48:49.877Z,95178.42
2017-09-16T09:51:16.068Z,95172.31
2017-09-16T09:53:48.569Z,95174.91
2017-09-16T09:56:17.974Z,95169.50
2017-09-16T09:58:44.190Z,95160.56
2017-09-16T10:01:10.474Z,95163.72
2017-09-16T10:03:36.769Z,95159.06
2017-09-16T10:06:03.021Z,95160.92
2017-09-16T10:08:29.285Z,95159.81
2017-09-16T10:10:55.570Z,95162.39
2017-09-16T10:13:28.056Z,95164.92
2017-09-16T10:15:54.886Z,95166.10
2017-09-16T10:18:21.309Z,95157.48
2017-09-16T10:20:48.305Z,95155.23
2017-09-16T10:23:14.541Z,95164.16
2017-09-16T10:25:41.514Z,95164.84
2017-09-16T10:28:07.873Z,95168.80
2017-09-16T10:30:34.853Z,95173.84
2017-09-16T10:33:01.105Z,95167.67
2017-09-16T10:35:27.346Z,95166.92
2017-09-16T10:37:53.550Z,95159.27
2017-09-16T10:40:19.857Z,95154.22
2017-09-16T10:42:46.034Z,95147.30
2017-09-16T10:45:13.190Z,95147.20
2017-09-16T10:47:39.431Z,95153.13
2017-09-16T10:50:05.620Z,95161.72
2017-09-16T10:52:32.623Z,95169.95
2017-09-16T10:54:58.860Z,95157.15
2017-09-16T10:57:25.082Z,95135.98
2017-09-16T10:59:51.333Z,95150.86
2017-09-16T11:02:18.190Z,95159.20
2017-09-16T11:04:44.513Z,95160.24
2017-09-16T11:07:10.790Z,95165.59
2017-09-16T11:09:37.835Z,95162.18
2017-09-16T11:12:04.450Z,95168.41
2017-09-16T11:14:30.706Z,95165.47
2017-09-16T11:16:57.010Z,95168.76
2017-09-16T11:19:24.814Z,95167.48
2017-09-16T11:21:51.121Z,95172.05
2017-09-16T11:24:17.393Z,95165.92
2017-09-16T11:26:45.631Z,95164.39
2017-09-16T11:29:11.853Z,95157.61
2017-09-16T11:31:38.374Z,95155.37
2017-09-16T11:34:04.673Z,95152.50
2017-09-16T11:36:30.852Z,95150.20
2017-09-16T11:38:57.255Z,95150.61
2017-09-16T11:41:24.252Z,95154.62
2017-09-16T11:43:50.503Z,95153.63
2017-09-16T11:46:17.789Z,95150.62
2017-09-16T11:48:44.132Z,95154.77
2017-09-16T11:51:11.017Z,95146.91
2017-09-16T11:53:37.313Z,95149.63
2017-09-16T11:56:03.620Z,95142.20
2017-09-16T11:58:29.875Z,95147.98
2017-09-16T12:00:56.111Z,95154.10
2017-09-16T12:03:22.420Z,95154.77
2017-09-16T12:05:48.792Z,95152.87
2017-09-16T12:08:15.104Z,95154.73
2017-09-16T12:10:41.317Z,95148.56
2017-09-16T12:13:07.582Z,95141.34
2017-09-16T12:15:33.798Z,95149.69
2017-09-16T12:18:00.015Z,95151.60
2017-09-16T12:20:26.351Z,95158.56
2017-09-16T12:22:52.595Z,95158.80
2017-09-16T12:25:18.867Z,95152.25
2017-09-16T12:27:45.904Z,95156.75
2017-09-16T12:30:13.074Z,95147.25
2017-09-16T12:32:39.421Z,95146.87
2017-09-16T12:35:05.737Z,95144.50
2017-09-16T12:37:31.982Z,95139.31
2017-09-16T12:39:58.184Z,95146.20
2017-09-16T12:42:26.296Z,95146.87
2017-09-16T12:44:52.686Z,95136.48
2017-09-16T12:47:18.941Z,95136.98
2017-09-16T12:49:45.170Z,95132.44
2017-09-16T12:52:11.435Z,95130.70
2017-09-16T12:54:37.791Z,95136.28
2017-09-16T12:57:04.796Z,95133.84
2017-09-16T12:59:31.042Z,95138.84
2017-09-16T13:01:57.326Z,95140.13
2017-09-16T13:04:24.409Z,95127.20
2017-09-16T13:06:50.618Z,95128.72
2017-09-16T13:09:17.637Z,95129.48
2017-09-16T13:11:43.942Z,95132.47
2017-09-16T13:14:10.161Z,95123.53
2017-09-16T13:16:36.458Z,95119.11
2017-09-16T13:19:02.741Z,95118.28
2017-09-16T13:21:28.997Z,95110.08
2017-09-16T13:23:55.225Z,95111.62
2017-09-16T13:26:21.629Z,95118.48
2017-09-16T13:28:47.846Z,95118.56
2017-09-16T13:31:14.047Z,95125.41
2017-09-16T13:33:40.329Z,95121.98
2017-09-16T13:36:07.318Z,95117.06
2017-09-16T13:38:33.559Z,95110.95
2017-09-16T13:40:59.888Z,95118.13
2017-09-16T13:43:26.121Z,95116.97
2017-09-16T13:45:52.466Z,95119.15
2017-09-16T13:48:18.658Z,95118.81
2017-09-16T13:50:44.880Z,95113.91
2017-09-16T13:53:11.160Z,95117.44
2017-09-16T13:55:37.395Z,95113.92
2017-09-16T13:58:03.630Z,95110.29
2017-09-16T14:00:29.848Z,95110.03
2017-09-16T14:02:56.101Z,95107.53
2017-09-16T14:05:22.333Z,95109.84
2017-09-16T14:07:49.605Z,95105.46
2017-09-16T14:10:15.845Z,95103.53
2017-09-16T14:12:42.042Z,95092.77
2017-09-16T14:15:08.353Z,95090.66
2017-09-16T14:17:35.323Z,95092.06
2017-09-16T14:20:01.614Z,95090.51
2017-09-16T14:22:27.906Z,95090.98
2017-09-16T14:24:54.186Z,95078.92
2017-09-16T14:27:21.360Z,95079.12
2017-09-16T14:29:48.373Z,95078.23
2017-09-16T14:32:15.746Z,95072.70
2017-09-16T14:34:42.512Z,95069.28
2017-09-16T14:37:08.765Z,95062.70
2017-09-16T14:39:35.766Z,95065.91
2017-09-16T14:42:02.011Z,95064.52
2017-09-16T14:44:28.310Z,95068.92
2017-09-16T14:46:54.700Z,95066.43
2017-09-16T14:49:21.721Z,95061.02
2017-09-16T14:51:47.961Z,95066.16
2017-09-16T14:54:14.231Z,95074.58
2017-09-16T14:56:41.257Z,95073.05
2017-09-16T14:59:07.541Z,95081.76
2017-09-16T15:01:34.478Z,95076.61
2017-09-16T15:04:01.517Z,95077.91
2017-09-16T15:06:28.509Z,95086.21
2017-09-16T15:08:54.757Z,95083.72
2017-09-16T15:11:21.010Z,95084.91
2017-09-16T15:13:47.279Z,95083.48
2017-09-16T15:16:13.572Z,95085.33
2017-09-16T15:18:39.806Z,95086.32
2017-09-16T15:21:06.067Z,95083.45
2017-09-16T15:23:32.387Z,95076.19
2017-09-16T15:25:58.597Z,95075.30
2017-09-16T15:28:24.789Z,95078.98
2017-09-16T15:30:51.076Z,95081.51
2017-09-16T15:33:17.295Z,95079.34
2017-09-16T15:35:43.532Z,95077.80
2017-09-16T15:38:09.794Z,95083.41
2017-09-16T15:40:36.030Z,95081.27
2017-09-16T15:43:02.218Z,95083.75
2017-09-16T15:45:28.480Z,95095.82
2017-09-16T15:47:54.708Z,95094.83
2017-09-16T15:50:20.897Z,95096.45
2017-09-16T15:52:47.901Z,95107.95
2017-09-16T15:55:14.208Z,95116.41
2017-09-16T15:57:40.453Z,95123.02
2017-09-16T16:00:06.693Z,95119.01
2017-09-16T16:02:32.949Z,95122.84
2017-09-16T16:04:59.213Z,95120.55
2017-09-16T16:07:25.410Z,95116.44
2017-09-16T16:09:51.682Z,95121.56
2017-09-16T16:12:17.986Z,95119.92
2017-09-16T16:14:44.233Z,95124.03
2017-09-16T16:17:10.694Z,95124.64
2017-09-16T16:19:37.716Z,95120.20
2017-09-16T16:22:03.937Z,95126.12
2017-09-16T16:24:30.373Z,95138.12
2017-09-16T16:26:56.641Z,95135.63
2017-09-16T16:29:23.121Z,95140.49
2017-09-16T16:31:50.222Z,95135.64
2017-09-16T16:34:16.552Z,95134.06
2017-09-16T16:36:42.800Z,95132.45
2017-09-16T16:39:09.111Z,95130.68
2017-09-16T16:41:35.341Z,95126.12
2017-09-16T16:44:01.633Z,95128.81
2017-09-16T16:46:28.637Z,95127.40
2017-09-16T16:48:54.856Z,95126.34
2017-09-16T16:51:21.097Z,95125.44
2017-09-16T16:53:47.258Z,95115.95
2017-09-16T16:56:13.590Z,95115.01
2017-09-16T16:58:39.815Z,95112.06
2017-09-16T17:01:06.031Z,95121.22
2017-09-16T17:03:32.290Z,95126.28
2017-09-16T17:05:58.506Z,95124.28
2017-09-16T17:08:24.708Z,95129.72
2017-09-16T17:10:51.733Z,95134.98
2017-09-16T17:13:18.005Z,95144.90
2017-09-16T17:15:44.969Z,95146.80
2017-09-16T17:18:11.363Z,95146.77
2017-09-16T17:20:38.584Z,95144.75
2017-09-16T17:23:05.603Z,95142.88
2017-09-16T17:25:31.930Z,95140.66
2017-09-16T17:27:58.240Z,95137.13
2017-09-16T17:30:24.582Z,95144.37
2017-09-16T17:32:50.898Z,95144.17
2017-09-16T17:35:22.242Z,95145.27
2017-09-16T17:37:48.907Z,95145.45
2017-09-16T17:40:20.209Z,95147.84
2017-09-16T17:42:49.098Z,95158.04
2017-09-16T17:45:20.768Z,95160.63
2017-09-16T17:47:52.630Z,95170.26
2017-09-16T17:50:19.935Z,95167.63
2017-09-16T17:52:46.135Z,95174.45
2017-09-16T17:55:12.373Z,95179.83
2017-09-16T17:57:38.726Z,95178.67
2017-09-16T18:00:05.766Z,95192.46
2017-09-16T18:02:32.006Z,95197.69
2017-09-16T18:04:58.194Z,95211.39
2017-09-16T18:07:24.486Z,95217.50
2017-09-16T18:09:50.802Z,95215.88
2017-09-16T18:12:18.023Z,95216.67
2017-09-16T18:14:44.281Z,95218.40
2017-09-16T18:17:10.670Z,95220.69
2017-09-16T18:19:37.667Z,95216.80
2017-09-16T18:22:03.932Z,95218.58
2017-09-16T18:24:30.320Z,95220.53
2017-09-16T18:26:57.332Z,95216.54
2017-09-16T18:29:23.690Z,95220.48
2017-09-16T18:31:50.657Z,95215.00
2017-09-16T18:34:17.643Z,95219.51
2017-09-16T18:36:43.910Z,95222.02
2017-09-16T18:39:10.207Z,95223.38
2017-09-16T18:41:36.454Z,95213.65
2017-09-16T18:44:02.705Z,95212.80
2017-09-16T18:46:29.045Z,95216.98
2017-09-16T18:48:55.351Z,95211.34
2017-09-16T18:51:21.589Z,95215.51
2017-09-16T18:53:47.797Z,95217.66
2017-09-16T18:56:14.814Z,95213.18
2017-09-16T18:58:41.113Z,95214.93
2017-09-16T19:01:07.362Z,95207.28
2017-09-16T19:03:35.713Z,95210.92
2017-09-16T19:06:01.982Z,95207.72
2017-09-16T19:08:28.362Z,95215.57
2017-09-16T19:10:55.427Z,95215.70
2017-09-16T19:13:21.610Z,95216.02
2017-09-16T19:15:47.830Z,95205.36
2017-09-16T19:18:14.708Z,95208.22
2017-09-16T19:20:42.648Z,95209.61
2017-09-16T19:23:08.898Z,95204.38
2017-09-16T19:25:35.248Z,95208.62
2017-09-16T19:28:01.563Z,95214.19
2017-09-16T19:30:27.806Z,95217.82
2017-09-16T19:32:54.240Z,95216.80
2017-09-16T19:35:20.812Z,95219.98
2017-09-16T19:37:47.865Z,95216.70
2017-09-16T19:40:14.865Z,95219.98
2017-09-16T19:42:41.234Z,95222.55
2017-09-16T19:45:07.669Z,95224.19
2017-09-16T19:47:33.901Z,95221.49
2017-09-16T19:50:00.157Z,95222.67
2017-09-16T19:52:26.684Z,95218.53
2017-09-16T19:54:52.907Z,95219.59
2017-09-16T19:57:19.162Z,95226.19
2017-09-16T19:59:45.409Z,95233.09
2017-09-16T20:02:11.873Z,95233.14
2017-09-16T20:04:38.878Z,95235.53
2017-09-16T20:07:05.098Z,95244.37
2017-09-16T20:09:31.337Z,95248.84
2017-09-16T20:11:57.561Z,95247.23
2017-09-16T20:14:23.786Z,95246.89
2017-09-16T20:16:50.146Z,95242.66
2017-09-16T20:19:16.341Z,95231.09
2017-09-16T20:21:42.597Z,95232.46
2017-09-16T20:24:08.877Z,95232.02
2017-09-16T20:26:35.202Z,95233.97
2017-09-16T20:29:01.547Z,95233.77
2017-09-16T20:31:27.857Z,95230.19
2017-09-16T20:33:54.057Z,95228.52
2017-09-16T20:36:20.520Z,95231.59
2017-09-16T20:38:46.773Z,95240.81
2017-09-16T20:41:13.159Z,95237.86
2017-09-16T20:43:40.144Z,95244.97
2017-09-16T20:46:06.405Z,95250.73
2017-09-16T20:48:32.763Z,95247.81
2017-09-16T20:50:59.777Z,95226.53
2017-09-16T20:53:25.998Z,95223.30
2017-09-16T20:55:52.357Z,95231.03
2017-09-16T20:58:18.687Z,95237.20
2017-09-16T21:00:44.917Z,95238.22
2017-09-16T21:03:11.194Z,95241.73
2017-09-16T21:05:37.461Z,95233.73
2017-09-16T21:08:03.742Z,95239.62
2017-09-16T21:10:29.929Z,95243.44
2017-09-16T21:12:56.207Z,95237.89
2017-09-16T21:15:22.426Z,95244.52
2017-09-16T21:17:48.670Z,95246.39
2017-09-16T21:20:14.850Z,95250.34
2017-09-16T21:22:42.144Z,95246.13
2017-09-16T21:25:08.369Z,95241.25
2017-09-16T21:27:34.626Z,95239.69
2017-09-16T21:30:00.921Z,95243.83
2017-09-16T21:32:27.156Z,95247.44
2017-09-16T21:34:54.149Z,95249.86
2017-09-16T21:37:20.353Z,95251.86
2017-09-16T21:39:46.555Z,95258.20
2017-09-16T21:42:18.617Z,95256.91
2017-09-16T21:44:49.693Z,95254.90
2017-09-16T21:47:16.288Z,95251.84
2017-09-16T21:49:44.529Z,95242.75
2017-09-16T21:52:10.709Z,95238.33
2017-09-16T21:54:37.002Z,95243.20
2017-09-16T21:57:04.258Z,95238.63
2017-09-16T21:59:30.637Z,95248.53
2017-09-16T22:01:56.936Z,95245.44
2017-09-16T22:04:23.155Z,95241.11
2017-09-16T22:06:49.451Z,95240.09
2017-09-16T22:09:15.782Z,95247.23
2017-09-16T22:11:42.113Z,95238.14
2017-09-16T22:14:09.466Z,95239.34
2017-09-16T22:16:35.751Z,95241.86
2017-09-16T22:19:02.742Z,95237.71
2017-09-16T22:21:28.953Z,95241.69
2017-09-16T22:23:55.194Z,95247.75
2017-09-16T22:26:21.433Z,95242.31
2017-09-16T22:28:47.663Z,95236.94
2017-09-16T22:31:13.910Z,95246.33
2017-09-16T22:33:40.194Z,95243.81
2017-09-16T22:36:07.175Z,95240.58
2017-09-16T22:38:33.443Z,95234.89
2017-09-16T22:40:59.758Z,95237.64
2017-09-16T22:43:25.964Z,95238.87
2017-09-16T22:45:53.762Z,95237.09
2017-09-16T22:48:20.093Z,95244.04
2017-09-16T22:50:46.306Z,95238.77
2017-09-16T22:53:12.574Z,95233.84
2017-09-16T22:55:38.849Z,95229.78
2017-09-16T22:58:05.150Z,95231.21
2017-09-16T23:00:31.382Z,95223.02
2017-09-16T23:02:57.629Z,95225.97
2017-09-16T23:05:23.936Z,95238.42
2017-09-16T23:07:50.423Z,95241.12
2017-09-16T23:10:16.705Z,95241.77
2017-09-16T23:12:42.949Z,95238.19
2017-09-16T23:15:09.195Z,95236.83
2017-09-16T23:17:35.796Z,95233.93
2017-09-16T23:20:02.064Z,95234.91
2017-09-16T23:22:29.030Z,95213.73
2017-09-16T23:24:57.050Z,95208.08
2017-09-16T23:27:25.277Z,95203.31
2017-09-16T23:29:51.578Z,95200.41
2017-09-16T23:32:17.968Z,95204.15
2017-09-16T23:34:44.282Z,95201.59
2017-09-16T23:37:10.530Z,95203.57
2017-09-16T23:39:36.745Z,95208.92
2017-09-16T23:42:02.974Z,95202.48
2017-09-16T23:44:29.217Z,95195.64
2017-09-16T23:46:55.434Z,95188.68
2017-09-16T23:49:21.718Z,95194.27
2017-09-16T23:51:48.031Z,95185.89
2017-09-16T23:54:14.257Z,95183.67
2017-09-16T23:56:40.513Z,95177.20
2017-09-16T23:59:06.745Z,95176.70
